Time;durP1;ratioP1;P1;durP2;ratioP2;P2;SDS_P1;SDS_P2;PMS_P1;PMS_P2;Temp;Humidity;BMP_temperature;BMP_pressure;BME280_temperature;BME280_humidity;BME280_pressure;Samples;Min_cycle;Max_cycle;Signal;HPM_P1;HPM_P2
2022/04/24 00:02:17;;;;;;;20.63;9.80;;;3.80;99.90;2.90;99550;;;;574974;246;24114;-80
2022/04/24 00:04:44;;;;;;;20.70;10.10;;;3.80;99.90;2.90;99561;;;;574891;246;24098;-78
2022/04/24 00:07:12;;;;;;;18.43;10.53;;;3.80;99.90;3.00;99553;;;;581167;246;24104;-85
2022/04/24 00:09:40;;;;;;;19.00;10.20;;;3.80;99.90;3.00;99561;;;;580951;246;24188;-84
2022/04/24 00:12:08;;;;;;;19.70;10.10;;;3.90;99.90;3.00;99556;;;;580773;246;24107;-85
2022/04/24 00:14:36;;;;;;;24.60;10.93;;;3.90;99.90;3.10;99550;;;;574517;246;24079;-85
2022/04/24 00:17:03;;;;;;;19.83;9.63;;;3.90;99.90;3.10;99547;;;;580698;246;24096;-79
2022/04/24 00:19:31;;;;;;;18.87;9.27;;;4.00;99.90;3.20;99550;;;;574444;246;24082;-81
2022/04/24 00:21:59;;;;;;;15.70;8.87;;;4.10;99.90;3.30;99555;;;;574522;246;24088;-85
2022/04/24 00:24:27;;;;;;;17.10;10.10;;;4.10;99.90;3.30;99555;;;;574463;246;24090;-83
2022/04/24 00:26:55;;;;;;;18.17;10.00;;;4.20;99.90;3.40;99556;;;;580700;246;24085;-84
2022/04/24 00:29:23;;;;;;;15.97;9.43;;;4.30;99.90;3.40;99557;;;;580606;246;24067;-84
2022/04/24 00:31:52;;;;;;;19.00;9.70;;;4.40;99.90;3.50;99544;;;;575047;246;24143;-78
2022/04/24 00:34:20;;;;;;;15.97;8.40;;;4.40;99.90;3.50;99541;;;;574328;246;24090;-77
2022/04/24 00:36:47;;;;;;;27.80;16.85;;;4.40;99.90;3.60;99551;;;;569171;246;35337;-81
2022/04/24 00:39:16;;;;;;;22.87;11.30;;;4.50;99.90;3.60;99544;;;;580393;246;24073;-80
2022/04/24 00:41:46;;;;;;;19.47;10.13;;;4.50;99.90;3.70;99555;;;;574121;246;24164;-77
2022/04/24 00:44:15;;;;;;;17.37;8.50;;;4.60;99.90;3.70;99549;;;;580082;246;24144;-77
2022/04/24 00:46:58;;;;;;;23.47;9.23;;;4.60;99.90;3.70;99543;;;;574903;245;24084;-77
2022/04/24 00:49:27;;;;;;;16.77;8.17;;;4.60;99.90;3.70;99550;;;;575240;245;25157;-77
2022/04/24 00:51:55;;;;;;;17.13;9.40;;;4.60;99.90;3.70;99540;;;;575056;245;24103;-77
2022/04/24 00:54:22;;;;;;;18.23;8.57;;;4.60;99.90;3.70;99538;;;;575202;245;24095;-77
2022/04/24 00:56:50;;;;;;;15.13;8.00;;;4.70;99.90;3.80;99543;;;;575231;245;24092;-77
2022/04/24 00:59:18;;;;;;;19.67;8.53;;;4.70;99.90;3.80;99545;;;;575154;245;24133;-76
2022/04/24 01:01:46;;;;;;;18.97;9.10;;;4.70;99.90;3.80;99546;;;;575176;245;24094;-78
2022/04/24 01:04:14;;;;;;;15.07;8.73;;;4.70;99.90;3.80;99548;;;;575198;246;24090;-77
2022/04/24 01:06:43;;;;;;;18.37;7.97;;;4.70;99.90;3.80;99539;;;;574975;246;24111;-77
2022/04/24 01:09:20;;;;;;;16.77;8.00;;;4.70;99.90;3.90;99550;;;;574365;246;24096;-77
2022/04/24 01:11:48;;;;;;;21.50;9.63;;;4.80;99.90;3.90;99544;;;;574427;246;24116;-77
2022/04/24 01:14:16;;;;;;;21.10;10.50;;;4.80;99.90;3.90;99545;;;;573853;246;24092;-76
2022/04/24 01:16:47;;;;;;;14.37;9.17;;;4.80;99.90;3.90;99543;;;;574848;246;24098;-77
2022/04/24 01:19:12;;;;;;;17.80;9.13;;;4.80;99.90;4.00;99539;;;;574427;246;24132;-75
2022/04/24 01:21:43;;;;;;;19.93;10.67;;;4.80;99.90;4.00;99535;;;;574429;246;24089;-83
2022/04/24 01:24:11;;;;;;;19.00;8.87;;;4.80;99.90;4.00;99533;;;;580442;246;24116;-81
2022/04/24 01:26:39;;;;;;;18.17;9.67;;;4.90;99.90;4.00;99531;;;;574242;246;24104;-76
2022/04/24 01:29:11;;;;;;;16.67;8.93;;;4.90;99.90;4.00;99532;;;;574360;246;24089;-77
2022/04/24 01:31:36;;;;;;;18.30;7.93;;;4.90;99.90;4.10;99529;;;;573846;246;24113;-77
2022/04/24 01:34:04;;;;;;;15.73;7.50;;;4.90;99.90;4.10;99534;;;;574351;246;24070;-76
2022/04/24 01:36:32;;;;;;;16.97;8.73;;;5.00;99.90;4.10;99540;;;;574314;246;24115;-76
2022/04/24 01:39:00;;;;;;;15.13;8.73;;;5.00;99.90;4.20;99541;;;;574158;246;24078;-76
2022/04/24 01:41:27;;;;;;;13.47;7.63;;;5.00;99.90;4.20;99535;;;;574262;246;24095;-82
2022/04/24 01:43:55;;;;;;;16.53;8.67;;;5.10;99.90;4.20;99531;;;;574307;246;24085;-80
2022/04/24 01:46:26;;;;;;;13.67;8.20;;;5.10;99.90;4.30;99531;;;;574330;246;24124;-84
2022/04/24 01:48:51;;;;;;;13.73;7.33;;;5.10;99.90;4.30;99529;;;;580620;246;24120;-80
2022/04/24 01:51:19;;;;;;;16.43;9.10;;;5.20;99.90;4.30;99527;;;;574774;246;25124;-83
2022/04/24 01:53:47;;;;;;;17.00;7.87;;;5.20;99.90;4.40;99528;;;;574808;246;24084;-83
2022/04/24 01:56:15;;;;;;;15.77;8.07;;;5.20;99.90;4.40;99521;;;;574886;246;24124;-78
2022/04/24 01:58:43;;;;;;;19.27;9.37;;;5.30;99.90;4.40;99518;;;;575387;245;24090;-78
2022/04/24 02:01:11;;;;;;;11.23;6.20;;;5.30;99.90;4.40;99523;;;;575432;245;24124;-76
2022/04/24 02:03:39;;;;;;;18.33;8.63;;;5.30;99.90;4.40;99514;;;;574935;245;24084;-78
2022/04/24 02:06:07;;;;;;;16.37;8.10;;;5.30;99.90;4.40;99515;;;;575098;245;24097;-81
2022/04/24 02:08:36;;;;;;;16.00;8.17;;;5.30;99.90;4.50;99512;;;;574768;245;24110;-83
2022/04/24 02:11:06;;;;;;;19.17;8.83;;;5.40;99.90;4.50;99514;;;;575182;245;24129;-78
2022/04/24 02:13:31;;;;;;;14.10;7.93;;;5.40;99.90;4.50;99513;;;;574888;245;24115;-78
2022/04/24 02:16:02;;;;;;;19.13;8.87;;;5.40;99.90;4.60;99506;;;;575102;246;24088;-79
2022/04/24 02:18:27;;;;;;;17.20;7.60;;;5.40;99.90;4.60;99501;;;;583095;244;24103;-80
2022/04/24 02:20:55;;;;;;;18.60;8.93;;;5.50;99.90;4.60;99503;;;;574962;246;24092;-81
2022/04/24 02:23:22;;;;;;;15.00;8.40;;;5.50;99.90;4.60;99502;;;;575020;246;24089;-80
2022/04/24 02:25:50;;;;;;;20.33;8.33;;;5.50;99.90;4.60;99506;;;;575062;246;24100;-84
2022/04/24 02:28:18;;;;;;;10.90;6.80;;;5.50;99.90;4.70;99501;;;;575594;246;24066;-82
2022/04/24 02:30:46;;;;;;;16.33;8.23;;;5.50;99.90;4.70;99494;;;;576134;246;24121;-81
2022/04/24 02:33:14;;;;;;;16.60;9.20;;;5.60;99.90;4.70;99501;;;;578536;240;24134;-79
2022/04/24 02:35:42;;;;;;;16.50;8.07;;;5.60;99.90;4.70;99499;;;;592703;238;24030;-78
2022/04/24 02:38:10;;;;;;;12.03;7.53;;;5.60;99.90;4.70;99491;;;;592722;238;24098;-79
2022/04/24 02:40:38;;;;;;;16.40;7.97;;;5.60;99.90;4.70;99484;;;;592575;238;24016;-79
2022/04/24 02:43:06;;;;;;;16.80;7.67;;;5.60;99.90;4.70;99494;;;;592705;238;24043;-79
2022/04/24 02:45:34;;;;;;;11.17;7.00;;;5.60;99.90;4.70;99483;;;;592756;238;24008;-78
2022/04/24 02:48:03;;;;;;;16.43;8.70;;;5.60;99.90;4.70;99476;;;;592662;238;24039;-79
2022/04/24 02:50:29;;;;;;;13.37;8.90;;;5.60;99.90;4.70;99477;;;;590068;240;24028;-78
2022/04/24 02:52:57;;;;;;;13.00;8.03;;;5.60;99.90;4.70;99476;;;;590083;240;24050;-78
2022/04/24 02:55:25;;;;;;;14.13;7.67;;;5.60;99.90;4.70;99483;;;;585090;240;24070;-78
2022/04/24 02:57:53;;;;;;;17.70;7.50;;;5.60;99.90;4.70;99480;;;;588516;240;24055;-79
2022/04/24 03:00:24;;;;;;;14.17;8.10;;;5.60;99.90;4.80;99482;;;;588255;240;24042;-78
2022/04/24 03:02:50;;;;;;;13.00;7.70;;;5.60;99.90;4.70;99480;;;;595916;240;24026;-79
2022/04/24 03:05:18;;;;;;;15.87;8.83;;;5.60;99.90;4.70;99478;;;;584735;240;24028;-79
2022/04/24 03:07:48;;;;;;;12.47;7.57;;;5.60;99.90;4.70;99474;;;;587936;240;24087;-79
2022/04/24 03:10:13;;;;;;;12.87;7.10;;;5.60;99.90;4.70;99465;;;;583860;239;24086;-79
2022/04/24 03:12:44;;;;;;;15.13;7.73;;;5.60;99.90;4.70;99467;;;;586230;240;24038;-79
2022/04/24 03:15:12;;;;;;;14.47;7.27;;;5.60;99.90;4.70;99468;;;;598606;240;24088;-79
2022/04/24 03:17:37;;;;;;;14.57;8.20;;;5.60;99.90;4.70;99462;;;;589354;240;24045;-79
2022/04/24 03:20:05;;;;;;;17.30;7.83;;;5.60;99.90;4.70;99467;;;;589181;240;24052;-78
2022/04/24 03:22:34;;;;;;;12.60;7.10;;;5.60;99.90;4.70;99461;;;;593836;240;24080;-78
2022/04/24 03:25:02;;;;;;;13.20;7.47;;;5.60;99.90;4.70;99455;;;;574621;246;24104;-78
2022/04/24 03:27:30;;;;;;;18.00;7.93;;;5.60;99.90;4.70;99452;;;;585081;241;24065;-78
2022/04/24 03:29:57;;;;;;;14.43;7.13;;;5.60;99.90;4.80;99457;;;;579032;246;24092;-77
2022/04/24 03:32:25;;;;;;;14.30;7.60;;;5.60;99.90;4.80;99451;;;;573856;246;24086;-78
2022/04/24 03:34:53;;;;;;;15.40;8.57;;;5.70;99.90;4.80;99451;;;;574295;246;24083;-79
2022/04/24 03:37:21;;;;;;;10.10;6.90;;;5.70;99.90;4.80;99442;;;;584908;241;25094;-78
2022/04/24 03:39:49;;;;;;;13.17;7.87;;;5.70;99.90;4.80;99436;;;;579096;246;24088;-78
2022/04/24 03:42:17;;;;;;;12.03;6.97;;;5.70;99.90;4.80;99445;;;;573786;246;24118;-78
2022/04/24 03:44:45;;;;;;;14.20;8.03;;;5.70;99.90;4.80;99453;;;;574372;246;24094;-78
2022/04/24 03:47:14;;;;;;;10.00;6.37;;;5.70;99.90;4.90;99444;;;;584619;241;24067;-78
2022/04/24 03:49:41;;;;;;;13.47;7.57;;;5.70;99.90;4.90;99440;;;;578525;244;24100;-79
2022/04/24 03:52:09;;;;;;;13.73;7.67;;;5.70;99.90;4.90;99432;;;;573465;246;24191;-78
2022/04/24 03:54:36;;;;;;;12.70;7.17;;;5.80;99.90;4.90;99429;;;;574110;246;24134;-78
2022/04/24 03:57:04;;;;;;;12.00;7.27;;;5.80;99.90;5.00;99435;;;;584672;241;24080;-78
2022/04/24 03:59:32;;;;;;;13.03;7.77;;;5.80;99.90;5.00;99440;;;;582921;246;24130;-78
2022/04/24 04:02:00;;;;;;;10.77;6.13;;;5.90;99.90;5.10;99437;;;;573141;246;24086;-78
2022/04/24 04:04:28;;;;;;;12.83;7.20;;;5.90;99.90;5.10;99440;;;;573781;246;24094;-79
2022/04/24 04:06:56;;;;;;;11.27;6.43;;;5.90;99.90;5.20;99435;;;;582476;246;25160;-78
2022/04/24 04:09:25;;;;;;;12.63;7.10;;;6.00;99.90;5.20;99431;;;;582171;241;24050;-78
2022/04/24 04:11:55;;;;;;;11.70;6.47;;;6.00;99.90;5.30;99434;;;;573735;246;24115;-79
2022/04/24 04:14:21;;;;;;;12.83;6.43;;;6.10;99.90;5.40;99429;;;;582549;246;24181;-79
2022/04/24 04:16:49;;;;;;;12.87;7.47;;;6.20;99.90;5.40;99428;;;;582853;246;24121;-79
2022/04/24 04:19:16;;;;;;;10.33;6.90;;;6.30;99.90;5.60;99428;;;;573960;246;24129;-80
2022/04/24 04:21:44;;;;;;;11.90;6.97;;;6.40;99.90;5.70;99428;;;;588639;239;24059;-80
2022/04/24 04:24:12;;;;;;;9.77;6.47;;;6.50;99.90;5.80;99432;;;;575134;245;24080;-80
2022/04/24 04:26:40;;;;;;;10.80;6.30;;;6.60;99.90;6.00;99426;;;;572929;246;24082;-79
2022/04/24 04:29:11;;;;;;;10.50;5.87;;;6.80;99.90;6.10;99427;;;;594614;241;24118;-78
2022/04/24 04:31:36;;;;;;;12.23;7.33;;;6.90;99.90;6.30;99434;;;;573115;246;24101;-78
2022/04/24 04:34:07;;;;;;;11.07;6.67;;;7.10;99.90;6.70;99441;;;;574126;246;24060;-79
2022/04/24 04:36:32;;;;;;;10.97;7.10;;;7.40;99.90;7.30;99443;;;;584412;245;24158;-79
2022/04/24 04:38:59;;;;;;;9.83;6.23;;;8.00;99.90;8.20;99443;;;;585470;241;24048;-78
2022/04/24 04:41:27;;;;;;;11.20;6.77;;;8.80;99.90;9.10;99445;;;;579254;246;24109;-78
2022/04/24 04:43:55;;;;;;;8.47;6.07;;;9.70;99.90;10.10;99444;;;;573906;246;24079;-79
2022/04/24 04:46:23;;;;;;;11.50;6.80;;;10.60;99.90;11.00;99448;;;;574428;246;24068;-78
2022/04/24 04:48:51;;;;;;;8.00;6.03;;;11.60;99.90;12.10;99453;;;;582613;241;24052;-80
2022/04/24 04:51:19;;;;;;;7.00;5.63;;;12.70;99.90;13.00;99453;;;;582793;241;24057;-80
2022/04/24 04:53:47;;;;;;;8.83;6.23;;;13.60;99.90;13.00;99455;;;;582775;241;24102;-79
2022/04/24 04:56:15;;;;;;;7.57;6.13;;;13.80;99.90;12.80;99453;;;;582735;241;24034;-79
2022/04/24 04:58:43;;;;;;;9.30;5.83;;;13.70;99.90;12.50;99449;;;;574156;246;24058;-78
2022/04/24 05:01:11;;;;;;;9.57;6.60;;;13.50;99.90;12.60;99456;;;;582393;241;24080;-78
2022/04/24 05:03:38;;;;;;;8.50;5.73;;;13.40;99.90;13.80;99454;;;;573820;246;24196;-78
2022/04/24 05:06:06;;;;;;;7.90;5.33;;;14.30;99.90;14.80;99460;;;;584258;241;24058;-79
2022/04/24 05:08:34;;;;;;;7.37;5.70;;;15.40;99.90;14.70;99459;;;;578510;246;24102;-79
2022/04/24 05:11:02;;;;;;;6.87;5.60;;;15.50;99.90;14.60;99462;;;;573140;246;24125;-78
2022/04/24 05:13:30;;;;;;;7.13;5.63;;;15.40;99.90;15.00;99469;;;;582546;241;24080;-80
2022/04/24 05:15:58;;;;;;;5.93;4.83;;;15.70;99.90;16.40;99466;;;;582471;241;24090;-80
2022/04/24 05:18:27;;;;;;;5.10;4.53;;;18.30;99.90;17.90;99480;;;;582388;241;24179;-78
2022/04/24 05:20:55;;;;;;;5.73;4.70;;;18.30;99.90;18.50;99480;;;;582441;241;24075;-79
2022/04/24 05:23:23;;;;;;;4.97;4.47;;;19.10;93.30;19.20;99480;;;;582431;241;24073;-78
2022/04/24 05:25:51;;;;;;;6.17;4.67;;;19.80;89.80;20.20;99488;;;;582517;241;24052;-80
2022/04/24 05:28:19;;;;;;;6.93;4.67;;;22.00;77.70;21.50;99480;;;;572984;246;24175;-80
2022/04/24 05:30:47;;;;;;;5.33;4.80;;;21.90;77.60;22.60;99492;;;;583029;241;25127;-79
2022/04/24 05:33:21;;;;;;;5.43;4.93;;;23.10;70.50;23.80;99487;;;;583430;241;24032;-78
2022/04/24 05:35:49;;;;;;;5.67;5.10;;;24.30;64.00;23.20;99497;;;;574532;245;24106;-80
2022/04/24 05:38:14;;;;;;;5.13;4.50;;;24.20;60.40;21.60;99487;;;;594269;241;24147;-79
2022/04/24 05:40:42;;;;;;;5.10;4.70;;;23.10;60.10;20.20;99478;;;;583245;241;23068;-79
2022/04/24 05:43:09;;;;;;;5.17;4.40;;;21.60;63.10;20.80;99490;;;;583080;241;24050;-80
2022/04/24 05:45:37;;;;;;;6.20;4.90;;;21.50;65.50;22.40;99494;;;;582950;241;24054;-79
2022/04/24 05:48:05;;;;;;;5.33;4.83;;;22.70;64.10;24.10;99498;;;;583130;241;24057;-80
2022/04/24 05:50:33;;;;;;;4.83;4.43;;;24.20;60.30;25.40;99495;;;;574483;246;23121;-78
2022/04/24 05:53:02;;;;;;;7.53;5.10;;;25.70;57.20;26.80;99497;;;;582471;241;23087;-77
2022/04/24 05:55:29;;;;;;;5.43;4.70;;;27.10;54.40;28.20;99505;;;;574278;246;24116;-79
2022/04/24 05:57:57;;;;;;;6.07;4.10;;;28.40;51.50;29.10;99510;;;;582626;241;23075;-79
2022/04/24 06:00:25;;;;;;;4.40;3.95;;;29.50;48.80;29.50;99513;;;;582356;241;24095;-79
2022/04/24 06:02:54;;;;;;;5.28;4.72;;;30.70;46.30;30.10;99513;;;;582435;241;24087;-79
2022/04/24 06:05:24;;;;;;;4.62;4.22;;;30.70;45.70;30.70;99520;;;;583189;246;23079;-79
2022/04/24 06:07:49;;;;;;;4.00;3.67;;;31.30;44.70;31.20;99518;;;;584758;241;24183;-80
2022/04/24 06:10:18;;;;;;;5.32;4.40;;;32.30;43.00;31.60;99514;;;;578240;246;23093;-79
2022/04/24 06:12:52;;;;;;;4.47;4.10;;;32.50;42.10;32.00;99527;;;;573535;246;23077;-79
2022/04/24 06:15:24;;;;;;;5.55;4.30;;;32.50;42.10;31.70;99532;;;;572530;246;23095;-79
2022/04/24 06:17:51;;;;;;;4.50;4.18;;;32.40;41.60;31.80;99525;;;;582769;241;23115;-80
2022/04/24 06:20:19;;;;;;;5.20;4.72;;;32.60;41.10;31.90;99524;;;;577924;246;23103;-80
2022/04/24 06:22:50;;;;;;;6.43;4.70;;;32.60;41.10;32.40;99531;;;;568190;246;35281;-80
2022/04/24 06:25:18;;;;;;;4.47;4.20;;;33.00;40.70;33.10;99534;;;;573910;246;23084;-80
2022/04/24 06:27:46;;;;;;;4.47;4.07;;;33.60;40.20;33.30;99539;;;;576427;246;23097;-79
2022/04/24 06:30:14;;;;;;;5.32;4.82;;;33.80;39.30;33.40;99546;;;;573182;246;23092;-80
2022/04/24 06:32:45;;;;;;;4.97;4.45;;;33.90;39.50;34.00;99550;;;;573753;246;23102;-80
2022/04/24 06:35:11;;;;;;;6.57;3.80;;;35.20;38.20;34.80;99551;;;;579894;243;25180;-80
2022/04/24 06:37:39;;;;;;;4.43;4.03;;;35.10;38.10;35.30;99549;;;;578731;244;23101;-81
2022/04/24 06:40:07;;;;;;;3.83;3.42;;;35.70;37.60;35.20;99548;;;;574357;244;23086;-79
2022/04/24 06:42:35;;;;;;;3.85;2.85;;;35.50;36.60;34.70;99562;;;;578840;244;23093;-80
2022/04/24 06:45:04;;;;;;;4.60;3.60;;;34.40;37.00;33.30;99563;;;;579654;243;23059;-80
2022/04/24 06:47:32;;;;;;;5.00;2.95;;;34.40;37.70;31.80;99551;;;;578114;244;23274;-80
2022/04/24 06:50:00;;;;;;;3.67;3.22;;;33.00;39.00;32.50;99550;;;;580072;244;23164;-80
2022/04/24 06:52:28;;;;;;;4.37;3.70;;;33.00;39.30;33.60;99564;;;;579881;244;23069;-80
2022/04/24 06:54:58;;;;;;;5.43;3.67;;;34.30;37.90;34.20;99561;;;;579794;244;23069;-81
2022/04/24 06:57:24;;;;;;;3.60;3.30;;;34.30;37.90;34.90;99566;;;;579784;244;23061;-78
2022/04/24 06:59:52;;;;;;;4.43;2.90;;;34.90;37.10;35.10;99568;;;;580164;244;23056;-79
2022/04/24 07:02:20;;;;;;;3.72;3.20;;;35.30;36.70;35.30;99564;;;;579662;244;24129;-80
2022/04/24 07:04:48;;;;;;;3.87;3.35;;;35.60;36.20;35.40;99562;;;;579408;244;23101;-80
2022/04/24 07:07:24;;;;;;;5.03;3.40;;;35.80;35.90;36.10;99562;;;;612308;228;34634;-80
2022/04/24 07:09:52;;;;;;;3.65;3.35;;;36.40;35.40;36.50;99563;;;;583948;242;23071;-80
2022/04/24 07:12:19;;;;;;;3.50;3.20;;;36.80;35.30;36.90;99561;;;;582047;246;23099;-80
2022/04/24 07:14:47;;;;;;;4.37;3.20;;;37.30;34.60;37.10;99578;;;;572894;246;23209;-80
2022/04/24 07:17:17;;;;;;;3.55;3.25;;;37.50;34.50;36.80;99567;;;;583051;242;23065;-80
2022/04/24 07:19:43;;;;;;;3.87;3.47;;;37.40;34.20;36.90;99557;;;;578739;244;23145;-80
2022/04/24 07:22:11;;;;;;;4.05;3.75;;;37.30;34.50;37.00;99565;;;;583022;242;23072;-80
2022/04/24 07:24:39;;;;;;;7.65;3.87;;;37.50;34.20;37.20;99574;;;;582798;242;24080;-80
2022/04/24 07:27:07;;;;;;;4.40;3.65;;;37.60;34.30;37.10;99571;;;;572485;246;23096;-80
2022/04/24 07:29:35;;;;;;;5.43;3.83;;;37.70;34.00;36.80;99577;;;;582794;242;23064;-80
2022/04/24 07:32:03;;;;;;;5.03;4.18;;;37.50;34.30;36.90;99577;;;;572017;247;23081;-80
2022/04/24 07:34:31;;;;;;;5.80;3.92;;;37.40;34.50;36.70;99576;;;;583020;242;23065;-80
2022/04/24 07:36:59;;;;;;;4.82;3.83;;;37.20;34.40;36.60;99580;;;;581545;246;23131;-80
2022/04/24 07:39:30;;;;;;;5.37;4.18;;;37.10;34.30;36.60;99578;;;;572342;246;23078;-81
2022/04/24 07:41:55;;;;;;;7.80;4.18;;;37.10;34.30;36.10;99579;;;;582499;242;23070;-81
2022/04/24 07:44:23;;;;;;;5.97;3.95;;;36.80;34.90;36.40;99591;;;;572156;246;24120;-81
2022/04/24 07:46:52;;;;;;;6.10;4.28;;;36.80;35.30;36.60;99591;;;;582348;242;23109;-80
2022/04/24 07:49:19;;;;;;;6.85;4.10;;;36.90;35.00;36.80;99581;;;;573593;244;23097;-81
2022/04/24 07:51:47;;;;;;;6.25;4.20;;;37.00;34.70;36.90;99580;;;;574507;246;23095;-81
2022/04/24 07:54:15;;;;;;;6.05;4.65;;;37.50;34.40;37.20;99587;;;;565051;246;45687;-81
2022/04/24 07:56:46;;;;;;;6.70;3.83;;;37.50;34.40;37.20;99584;;;;579950;244;23068;-80
2022/04/24 07:59:11;;;;;;;4.93;3.83;;;37.60;34.70;37.70;99590;;;;578633;244;23069;-81
2022/04/24 08:01:39;;;;;;;4.12;3.83;;;38.10;34.30;37.90;99590;;;;574557;246;23093;-81
2022/04/24 08:04:07;;;;;;;4.87;3.53;;;38.30;33.70;37.50;99587;;;;570082;246;23079;-81
2022/04/24 08:06:35;;;;;;;8.07;3.97;;;38.00;33.90;37.60;99583;;;;580170;244;23076;-80
2022/04/24 08:09:03;;;;;;;7.55;3.78;;;38.10;34.10;37.40;99593;;;;579110;244;23067;-81
2022/04/24 08:11:31;;;;;;;5.45;3.60;;;37.90;33.60;37.00;99584;;;;574786;245;23060;-81
2022/04/24 08:13:59;;;;;;;4.57;3.03;;;37.70;33.70;36.90;99593;;;;589307;242;23074;-80
2022/04/24 08:16:27;;;;;;;5.15;2.72;;;37.70;34.00;37.40;99595;;;;571257;244;23072;-80
2022/04/24 08:18:59;;;;;;;5.68;2.87;;;37.70;33.90;37.70;99597;;;;582393;241;23028;-81
2022/04/24 08:21:23;;;;;;;3.70;2.87;;;38.10;32.90;37.90;99593;;;;575327;246;23081;-81
2022/04/24 08:23:51;;;;;;;3.95;2.72;;;38.40;33.20;37.80;99596;;;;581862;242;23035;-81
2022/04/24 08:26:19;;;;;;;3.83;3.05;;;38.40;32.60;37.20;99597;;;;572034;246;24133;-80
2022/04/24 08:28:47;;;;;;;8.43;2.85;;;38.00;32.60;36.90;99607;;;;581302;242;23058;-79
2022/04/24 08:31:15;;;;;;;3.37;3.00;;;37.70;33.50;36.40;99601;;;;571915;246;23116;-81
2022/04/24 08:33:43;;;;;;;4.25;3.05;;;37.30;33.20;36.00;99603;;;;581383;242;23036;-80
2022/04/24 08:36:11;;;;;;;4.53;3.08;;;36.80;33.90;36.00;99612;;;;571868;246;23054;-81
2022/04/24 08:38:39;;;;;;;6.15;2.80;;;36.70;33.60;36.20;99612;;;;581108;242;24095;-81
2022/04/24 08:41:07;;;;;;;3.15;2.85;;;36.80;33.40;36.70;99619;;;;571452;246;23069;-81
2022/04/24 08:43:38;;;;;;;5.22;3.30;;;37.20;33.60;36.70;99613;;;;585278;241;24070;-81
2022/04/24 08:46:02;;;;;;;6.78;3.55;;;37.40;33.50;36.60;99619;;;;579209;247;23111;-81
2022/04/24 08:48:33;;;;;;;3.87;3.10;;;37.40;33.00;35.60;99619;;;;587389;244;23067;-81
2022/04/24 08:51:00;;;;;;;3.70;3.40;;;36.90;33.20;35.40;99620;;;;569544;247;23075;-81
2022/04/24 08:53:26;;;;;;;8.10;3.60;;;36.50;33.50;35.60;99629;;;;580278;243;23067;-81
2022/04/24 08:55:55;;;;;;;3.28;2.85;;;36.60;33.50;35.60;99623;;;;584033;241;23057;-81
2022/04/24 08:58:23;;;;;;;3.92;3.35;;;36.60;33.40;35.40;99629;;;;578632;244;24090;-81
2022/04/24 09:00:51;;;;;;;6.05;3.72;;;36.60;33.80;35.30;99630;;;;574456;246;23180;-81
2022/04/24 09:03:21;;;;;;;5.90;3.47;;;36.50;33.70;35.20;99633;;;;570115;246;24090;-80
2022/04/24 09:05:46;;;;;;;4.43;3.30;;;36.30;34.00;35.20;99636;;;;579814;242;23088;-81
2022/04/24 09:08:14;;;;;;;3.45;3.17;;;36.20;34.20;35.50;99629;;;;578728;244;23117;-80
2022/04/24 09:10:51;;;;;;;5.85;3.15;;;36.40;34.10;35.80;99631;;;;574687;246;23092;-80
2022/04/24 09:14:14;;;;;;;8.55;3.50;;;36.80;33.60;35.80;99633;;;;579538;246;23075;-81
2022/04/24 09:16:02;;;;;;;3.75;3.47;;;37.00;33.60;35.30;99627;;;;584021;243;23112;-81
2022/04/24 09:18:37;;;;;;;3.90;3.53;;;36.50;34.30;35.40;99631;;;;573754;247;23128;-80
2022/04/24 09:21:05;;;;;;;6.35;3.50;;;36.50;34.20;35.10;99633;;;;585119;241;23036;-81
2022/04/24 09:23:33;;;;;;;4.35;3.58;;;36.30;34.30;35.20;99637;;;;571304;246;23072;-80
2022/04/24 09:26:02;;;;;;;5.90;3.50;;;36.40;34.60;35.20;99630;;;;583191;244;23079;-81
2022/04/24 09:28:39;;;;;;;6.12;3.35;;;36.40;34.00;35.40;99630;;;;581298;241;23078;-81
2022/04/24 09:31:07;;;;;;;6.62;3.75;;;36.60;33.60;35.40;99631;;;;583841;243;23090;-80
2022/04/24 09:33:40;;;;;;;3.47;3.17;;;36.80;33.50;35.30;99627;;;;570865;246;23066;-81
2022/04/24 09:36:08;;;;;;;6.12;3.45;;;36.90;34.10;35.90;99627;;;;584006;243;23063;-81
2022/04/24 09:38:45;;;;;;;4.00;3.60;;;37.20;33.70;36.50;99626;;;;571675;247;23079;-80
2022/04/24 09:41:19;;;;;;;8.82;3.20;;;37.70;33.50;36.80;99634;;;;588136;244;23063;-81
2022/04/24 09:43:49;;;;;;;5.00;3.62;;;38.20;33.40;36.70;99626;;;;574387;246;24094;-81
2022/04/24 09:46:27;;;;;;;5.43;3.55;;;38.40;33.40;37.00;99630;;;;585053;236;23040;-81
2022/04/24 09:48:58;;;;;;;4.47;3.28;;;38.40;33.40;37.50;99634;;;;582867;242;24083;-80
2022/04/24 09:51:23;;;;;;;6.90;3.67;;;39.10;32.40;37.60;99648;;;;584911;242;23040;-80
2022/04/24 09:53:51;;;;;;;4.07;3.67;;;39.40;31.80;37.10;99645;;;;583015;242;23043;-80
2022/04/24 09:56:18;;;;;;;3.50;3.20;;;39.30;32.20;37.20;99647;;;;585264;241;24097;-80
2022/04/24 09:58:46;;;;;;;4.22;3.83;;;39.20;31.70;36.60;99634;;;;574353;246;23154;-81
2022/04/24 10:01:18;;;;;;;4.22;3.33;;;38.90;31.70;36.10;99638;;;;583297;243;23076;-80
2022/04/24 10:03:46;;;;;;;6.12;3.15;;;38.50;32.00;35.20;99633;;;;584669;242;23140;-80
2022/04/24 10:06:10;;;;;;;5.18;3.45;;;37.70;32.20;34.30;99631;;;;573980;246;24093;-80
2022/04/24 10:08:40;;;;;;;3.50;3.28;;;36.90;33.40;33.40;99637;;;;569831;244;23120;-80
2022/04/24 10:11:06;;;;;;;5.32;3.15;;;36.00;33.60;32.00;99629;;;;570124;244;23069;-80
2022/04/24 10:13:37;;;;;;;4.10;3.22;;;34.90;34.70;30.60;99628;;;;582414;246;23090;-80
2022/04/24 10:16:29;;;;;;;4.47;4.00;;;33.60;35.60;28.90;99629;;;;569601;246;23100;-79
2022/04/24 10:19:21;;;;;;;5.83;3.23;;;32.20;37.00;27.40;99619;;;;582315;241;23067;-79
2022/04/24 10:22:07;;;;;;;3.67;3.37;;;30.40;39.30;26.20;99632;;;;573791;246;23117;-78
2022/04/24 10:24:41;;;;;;;3.57;3.30;;;28.90;41.00;24.70;99626;;;;579274;247;23076;-79
2022/04/24 10:27:10;;;;;;;3.70;3.40;;;27.60;42.40;23.40;99618;;;;577995;246;24043;-80
2022/04/24 10:29:34;;;;;;;5.20;3.20;;;26.20;45.00;22.20;99614;;;;573544;246;24093;-80
2022/04/24 10:32:03;;;;;;;6.45;4.05;;;24.80;47.30;21.30;99608;;;;579686;241;34969;-79
2022/04/24 10:34:30;;;;;;;4.40;3.70;;;23.70;49.20;20.40;99607;;;;568998;246;35154;-79
2022/04/24 10:37:04;;;;;;;9.33;2.93;;;22.60;51.40;19.40;99610;;;;583298;242;24031;-80
2022/04/24 10:39:35;;;;;;;3.27;2.83;;;21.50;53.60;18.40;99614;;;;582111;241;24121;-79
2022/04/24 10:42:01;;;;;;;4.13;3.30;;;20.30;55.80;17.60;99615;;;;575230;246;24092;-80
2022/04/24 10:44:29;;;;;;;3.27;2.80;;;19.30;58.40;16.80;99615;;;;567147;247;24102;-79
2022/04/24 10:46:59;;;;;;;5.10;3.30;;;18.30;60.50;15.80;99624;;;;575895;243;34862;-79
2022/04/24 10:49:26;;;;;;;8.23;3.10;;;16.30;67.50;15.00;99634;;;;574787;246;23081;-79
2022/04/24 10:52:00;;;;;;;5.97;2.80;;;16.20;66.90;14.40;99634;;;;584086;242;24030;-77
2022/04/24 10:54:31;;;;;;;5.67;3.10;;;15.50;69.70;13.80;99647;;;;584871;236;24023;-81
2022/04/24 10:56:59;;;;;;;3.07;2.53;;;14.80;72.50;13.20;99615;;;;574385;246;24115;-79
2022/04/24 10:59:27;;;;;;;7.50;3.23;;;13.60;77.60;12.70;99628;;;;574150;246;24087;-79
2022/04/24 11:01:58;;;;;;;7.13;3.30;;;13.50;77.50;12.30;99629;;;;573510;246;24085;-78
2022/04/24 11:04:25;;;;;;;4.07;2.67;;;13.10;80.10;12.00;99621;;;;574265;246;24074;-78
2022/04/24 11:07:02;;;;;;;5.43;3.20;;;12.80;82.30;11.80;99620;;;;578863;244;24078;-78
2022/04/24 11:09:31;;;;;;;6.63;4.43;;;12.50;86.30;11.50;99610;;;;578800;244;24119;-78
2022/04/24 11:12:02;;;;;;;6.63;4.57;;;12.20;88.80;11.30;99623;;;;578447;244;24082;-78
2022/04/24 11:14:33;;;;;;;8.53;3.90;;;11.80;93.60;11.10;99610;;;;578760;244;24061;-80
2022/04/24 11:16:58;;;;;;;6.13;4.13;;;11.80;93.60;10.90;99620;;;;578770;244;24098;-79
2022/04/24 11:19:26;;;;;;;7.83;4.50;;;11.60;96.60;10.70;99607;;;;584856;242;24089;-79
2022/04/24 11:21:55;;;;;;;4.87;4.43;;;11.40;99.90;10.70;99615;;;;584768;242;25113;-79
2022/04/24 11:24:23;;;;;;;12.43;4.80;;;11.30;99.90;10.70;99614;;;;574312;246;24115;-79
2022/04/24 11:26:52;;;;;;;7.50;4.83;;;11.20;99.90;10.50;99621;;;;594180;239;24046;-79